createdAt,value
2022-08-25T00:00:42.771Z,85.97
2022-08-25T00:04:08.850Z,85.93
2022-08-25T00:07:31.312Z,85.64
2022-08-25T00:11:03.068Z,86.19
2022-08-25T00:14:28.064Z,86.18
2022-08-25T00:17:50.541Z,86.07
2022-08-25T00:21:13.431Z,86.02
2022-08-25T00:24:35.130Z,86.48
2022-08-25T00:27:59.168Z,86.27
2022-08-25T00:31:24.116Z,86.45
2022-08-25T00:35:00.822Z,86.37
2022-08-25T00:38:22.453Z,86.24
2022-08-25T00:41:44.875Z,86.48
2022-08-25T00:45:09.932Z,86.51
2022-08-25T00:48:31.820Z,86.64
2022-08-25T00:51:59.996Z,86.68
2022-08-25T00:55:26.656Z,86.50
2022-08-25T00:58:48.770Z,86.81
2022-08-25T01:02:13.955Z,86.59
2022-08-25T01:05:36.875Z,86.78
2022-08-25T01:08:58.670Z,86.75
2022-08-25T01:12:21.411Z,86.80
2022-08-25T01:15:43.633Z,87.08
2022-08-25T01:19:09.146Z,87.50
2022-08-25T01:22:39.000Z,87.68
2022-08-25T01:26:06.731Z,87.88
2022-08-25T01:29:29.185Z,88.03
2022-08-25T01:32:50.922Z,87.49
2022-08-25T01:36:12.550Z,87.74
2022-08-25T01:39:37.347Z,88.01
2022-08-25T01:43:07.874Z,87.98
2022-08-25T01:46:29.844Z,88.48
2022-08-25T01:49:51.451Z,88.33
2022-08-25T01:53:20.318Z,88.76
2022-08-25T01:56:43.961Z,88.97
2022-08-25T02:00:06.838Z,89.07
2022-08-25T02:03:32.751Z,89.17
2022-08-25T02:06:54.689Z,89.27
2022-08-25T02:10:16.597Z,89.45
2022-08-25T02:13:40.464Z,89.61
2022-08-25T02:17:02.142Z,90.09
2022-08-25T02:20:24.778Z,90.31
2022-08-25T02:23:46.649Z,90.33
2022-08-25T02:27:08.572Z,90.30
2022-08-25T02:30:31.936Z,90.10
2022-08-25T02:33:55.159Z,89.92
2022-08-25T02:37:17.246Z,89.95
2022-08-25T02:40:39.091Z,90.46
2022-08-25T02:44:01.862Z,90.99
2022-08-25T02:47:26.923Z,90.70
2022-08-25T02:50:51.643Z,90.79
2022-08-25T02:54:14.141Z,90.65
2022-08-25T02:57:36.119Z,90.79
2022-08-25T03:00:57.935Z,90.93
2022-08-25T03:04:20.890Z,90.88
2022-08-25T03:07:43.662Z,90.86
2022-08-25T03:11:07.285Z,90.81
2022-08-25T03:14:28.859Z,91.65
2022-08-25T03:17:50.705Z,91.72
2022-08-25T03:21:15.784Z,91.86
2022-08-25T03:24:38.047Z,91.78
2022-08-25T03:27:59.761Z,91.19
2022-08-25T03:31:22.092Z,91.02
2022-08-25T03:34:43.730Z,90.91
2022-08-25T03:38:07.518Z,90.79
2022-08-25T03:41:32.608Z,90.05
2022-08-25T03:44:54.671Z,89.91
2022-08-25T03:48:18.125Z,90.22
2022-08-25T03:51:42.974Z,90.37
2022-08-25T03:55:08.811Z,90.24
2022-08-25T03:58:30.609Z,90.49
2022-08-25T04:01:55.112Z,90.36
2022-08-25T04:05:17.260Z,90.27
2022-08-25T04:08:39.569Z,90.21
2022-08-25T04:12:03.410Z,90.41
2022-08-25T04:15:28.539Z,90.24
2022-08-25T04:18:52.865Z,90.58
2022-08-25T04:22:14.893Z,90.72
2022-08-25T04:25:36.781Z,91.07
2022-08-25T04:29:01.421Z,91.05
2022-08-25T04:32:23.085Z,91.26
2022-08-25T04:35:48.798Z,91.71
2022-08-25T04:39:10.893Z,92.30
2022-08-25T04:42:32.943Z,92.95
2022-08-25T04:45:56.557Z,93.01
2022-08-25T04:49:18.193Z,92.99
2022-08-25T04:52:40.358Z,92.71
2022-08-25T04:56:03.926Z,92.89
2022-08-25T04:59:27.369Z,92.53
2022-08-25T05:02:55.457Z,92.68
2022-08-25T05:06:17.295Z,93.75
2022-08-25T05:09:39.324Z,93.93
2022-08-25T05:13:01.230Z,93.96
2022-08-25T05:16:25.040Z,94.35
2022-08-25T05:19:48.371Z,94.45
2022-08-25T05:23:10.644Z,94.06
2022-08-25T05:26:33.978Z,93.79
2022-08-25T05:29:55.461Z,93.34
2022-08-25T05:33:18.481Z,93.50
2022-08-25T05:36:43.588Z,93.46
2022-08-25T05:40:07.296Z,93.52
2022-08-25T05:43:29.010Z,93.26
2022-08-25T05:46:51.423Z,92.93
2022-08-25T05:50:13.744Z,93.08
2022-08-25T05:53:38.417Z,93.27
2022-08-25T05:57:01.155Z,93.18
2022-08-25T06:00:23.620Z,93.50
2022-08-25T06:03:44.746Z,93.54
2022-08-25T06:07:06.622Z,93.31
2022-08-25T06:10:30.194Z,92.87
2022-08-25T06:13:52.266Z,92.81
2022-08-25T06:17:14.391Z,92.83
2022-08-25T06:20:37.145Z,92.76
2022-08-25T06:23:59.062Z,92.97
2022-08-25T06:27:22.479Z,92.87
2022-08-25T06:30:44.569Z,92.71
2022-08-25T06:34:06.460Z,92.53
2022-08-25T06:37:28.039Z,92.68
2022-08-25T06:40:52.108Z,92.65
2022-08-25T06:44:15.072Z,92.59
2022-08-25T06:47:36.984Z,92.63
2022-08-25T06:50:58.629Z,92.44
2022-08-25T06:54:20.650Z,92.25
2022-08-25T06:57:42.300Z,91.73
2022-08-25T07:01:15.812Z,91.56
2022-08-25T07:04:42.300Z,91.35
2022-08-25T07:08:04.532Z,91.00
2022-08-25T07:11:26.507Z,91.00
2022-08-25T07:15:03.460Z,90.67
2022-08-25T07:18:27.146Z,90.41
2022-08-25T07:21:52.163Z,89.47
2022-08-25T07:25:14.322Z,88.78
2022-08-25T07:28:39.905Z,88.35
2022-08-25T07:32:09.334Z,87.28
2022-08-25T07:35:37.491Z,87.32
2022-08-25T07:38:59.779Z,87.12
2022-08-25T07:42:21.980Z,87.05
2022-08-25T07:45:49.184Z,86.81
2022-08-25T07:49:16.704Z,86.97
2022-08-25T07:52:40.515Z,86.00
2022-08-25T07:59:30.071Z,86.14
2022-08-25T08:02:52.108Z,85.49
2022-08-25T08:06:17.760Z,85.33
2022-08-25T08:09:41.763Z,84.74
2022-08-25T08:13:07.118Z,84.32
2022-08-25T08:16:31.032Z,84.26
2022-08-25T08:19:54.476Z,83.34
2022-08-25T08:23:16.779Z,82.96
2022-08-25T08:26:57.389Z,82.75
2022-08-25T08:30:21.627Z,83.09
2022-08-25T08:33:45.445Z,82.21
2022-08-25T08:37:07.675Z,82.30
2022-08-25T08:40:37.501Z,82.17
2022-08-25T08:44:08.897Z,81.54
2022-08-25T08:47:44.668Z,81.73
2022-08-25T08:51:20.635Z,81.17
2022-08-25T08:54:48.204Z,80.75
2022-08-25T08:58:15.530Z,80.53
2022-08-25T09:01:46.819Z,79.96
2022-08-25T09:05:19.237Z,79.78
2022-08-25T09:08:44.942Z,79.80
2022-08-25T09:12:13.392Z,80.00
2022-08-25T09:15:59.230Z,79.34
2022-08-25T09:19:41.905Z,78.88
2022-08-25T09:23:15.520Z,78.26
2022-08-25T09:26:49.829Z,78.50
2022-08-25T09:30:14.502Z,78.18
2022-08-25T09:33:36.538Z,77.16
2022-08-25T09:37:00.234Z,77.34
2022-08-25T09:40:23.194Z,77.44
2022-08-25T09:43:53.346Z,76.76
2022-08-25T09:47:23.269Z,76.52
2022-08-25T09:50:46.775Z,76.26
2022-08-25T09:54:21.023Z,76.03
2022-08-25T09:57:52.912Z,75.86
2022-08-25T10:01:17.631Z,74.78
2022-08-25T10:04:41.201Z,76.08
2022-08-25T10:08:05.698Z,75.46
2022-08-25T10:11:39.310Z,75.44
2022-08-25T10:15:01.134Z,75.06
2022-08-25T10:18:26.674Z,74.42
2022-08-25T10:22:04.742Z,74.67
2022-08-25T10:25:31.271Z,73.95
2022-08-25T10:29:07.518Z,74.94
2022-08-25T10:32:44.696Z,74.80
2022-08-25T10:36:15.793Z,74.09
2022-08-25T10:39:44.408Z,73.81
2022-08-25T10:43:11.310Z,73.51
2022-08-25T10:46:49.971Z,73.36
2022-08-25T10:50:30.507Z,72.39
2022-08-25T10:53:58.326Z,73.15
2022-08-25T10:57:29.295Z,72.91
2022-08-25T11:01:00.462Z,71.80
2022-08-25T11:04:29.730Z,72.68
2022-08-25T11:08:02.030Z,73.02
2022-08-25T11:11:36.865Z,72.05
2022-08-25T11:15:03.230Z,71.92
2022-08-25T11:18:31.782Z,71.86
2022-08-25T11:22:02.974Z,72.19
2022-08-25T11:25:30.419Z,71.40
2022-08-25T11:28:59.922Z,71.31
2022-08-25T11:32:24.799Z,70.49
2022-08-25T11:35:54.389Z,70.24
2022-08-25T11:39:34.002Z,69.04
2022-08-25T11:43:08.494Z,69.47
2022-08-25T11:46:47.756Z,70.55
2022-08-25T11:50:30.267Z,69.66
2022-08-25T11:54:14.662Z,69.71
2022-08-25T11:57:39.423Z,68.88
2022-08-25T12:01:02.569Z,69.95
2022-08-25T12:04:44.440Z,69.63
2022-08-25T12:08:25.749Z,69.30
2022-08-25T12:11:51.327Z,68.90
2022-08-25T12:15:23.566Z,69.42
2022-08-25T12:18:46.865Z,69.20
2022-08-25T12:22:55.160Z,69.86
2022-08-25T12:26:28.902Z,69.19
2022-08-25T12:29:54.855Z,68.86
2022-08-25T12:33:30.229Z,68.67
2022-08-25T12:37:00.770Z,68.04
2022-08-25T12:40:27.859Z,67.52
2022-08-25T12:43:52.395Z,67.46
2022-08-25T12:47:33.818Z,66.83
2022-08-25T12:51:01.785Z,66.93
2022-08-25T12:54:33.277Z,66.60
2022-08-25T12:58:01.398Z,66.18
2022-08-25T13:01:36.350Z,65.72
2022-08-25T13:05:40.925Z,65.05
2022-08-25T13:09:59.676Z,64.26
2022-08-25T13:13:49.156Z,64.71
2022-08-25T13:17:12.103Z,64.70
2022-08-25T13:20:35.870Z,63.65
2022-08-25T13:24:04.637Z,64.16
2022-08-25T13:27:31.220Z,63.19
2022-08-25T13:31:07.626Z,63.49
2022-08-25T13:34:35.120Z,62.62
2022-08-25T13:38:13.791Z,62.32
2022-08-25T13:41:35.453Z,62.08
2022-08-25T13:45:00.374Z,61.67
2022-08-25T13:48:35.558Z,61.59
2022-08-25T13:51:57.609Z,61.61
2022-08-25T13:55:27.611Z,61.31
2022-08-25T13:58:50.368Z,60.65
2022-08-25T14:02:15.277Z,61.45
2022-08-25T14:05:45.611Z,62.01
2022-08-25T14:09:16.652Z,61.06
2022-08-25T14:12:41.600Z,61.29
2022-08-25T14:16:13.759Z,61.71
2022-08-25T14:19:45.814Z,61.64
2022-08-25T14:23:16.294Z,61.24
2022-08-25T14:26:53.928Z,61.12
2022-08-25T14:30:16.239Z,60.77
2022-08-25T14:33:55.303Z,60.89
2022-08-25T14:37:21.012Z,60.99
2022-08-25T14:40:48.078Z,60.74
2022-08-25T14:44:11.604Z,59.87
2022-08-25T14:47:33.586Z,59.73
2022-08-25T14:50:57.793Z,58.62
2022-08-25T14:54:23.677Z,58.42
2022-08-25T14:57:45.743Z,57.89
2022-08-25T15:01:08.390Z,56.17
2022-08-25T15:04:31.356Z,53.07
2022-08-25T15:08:12.245Z,51.00
2022-08-25T15:11:41.458Z,49.04
2022-08-25T15:15:04.346Z,48.12
2022-08-25T15:18:26.931Z,48.19
2022-08-25T15:21:49.655Z,48.32
2022-08-25T15:25:11.601Z,47.42
2022-08-25T15:28:34.710Z,47.55
2022-08-25T15:31:57.265Z,47.40
2022-08-25T15:35:19.750Z,47.21
2022-08-25T15:38:44.444Z,47.61
2022-08-25T15:42:07.022Z,47.50
2022-08-25T15:45:30.348Z,47.54
2022-08-25T15:48:52.700Z,48.33
2022-08-25T15:52:14.608Z,48.66
2022-08-25T15:55:39.634Z,49.12
2022-08-25T15:59:08.659Z,50.25
2022-08-25T16:02:33.356Z,51.17
2022-08-25T16:05:55.102Z,51.29
2022-08-25T16:09:16.536Z,50.39
2022-08-25T16:12:45.455Z,50.87
2022-08-25T16:16:08.052Z,51.10
2022-08-25T16:19:33.446Z,50.91
2022-08-25T16:23:00.511Z,50.91
2022-08-25T16:26:22.737Z,51.01
2022-08-25T16:29:45.609Z,50.61
2022-08-25T16:33:08.417Z,50.44
2022-08-25T16:36:32.782Z,50.83
2022-08-25T16:39:54.714Z,50.96
2022-08-25T16:43:17.715Z,50.54
2022-08-25T16:46:40.790Z,51.28
2022-08-25T16:50:03.565Z,51.20
2022-08-25T16:53:44.926Z,51.87
2022-08-25T16:57:10.633Z,51.77
2022-08-25T17:00:32.601Z,51.78
2022-08-25T17:03:55.841Z,52.78
2022-08-25T17:07:23.750Z,53.64
2022-08-25T17:10:47.851Z,53.71
2022-08-25T17:14:11.346Z,53.89
2022-08-25T17:17:36.010Z,53.95
2022-08-25T17:21:02.043Z,54.64
2022-08-25T17:24:29.354Z,54.55
2022-08-25T17:27:55.040Z,55.63
2022-08-25T17:31:17.227Z,55.81
2022-08-25T17:34:39.121Z,56.64
2022-08-25T17:38:00.903Z,57.10
2022-08-25T17:41:22.915Z,57.21
2022-08-25T17:44:46.923Z,57.91
2022-08-25T17:48:09.970Z,58.84
2022-08-25T17:51:32.040Z,59.57
2022-08-25T17:54:55.099Z,59.83
2022-08-25T17:58:21.250Z,60.87
2022-08-25T18:01:44.544Z,61.38
2022-08-25T18:05:07.766Z,63.24
2022-08-25T18:08:34.868Z,63.94
2022-08-25T18:11:57.376Z,64.56
2022-08-25T18:15:19.835Z,65.11
2022-08-25T18:18:42.781Z,66.06
2022-08-25T18:22:06.208Z,66.73
2022-08-25T18:25:28.834Z,67.27
2022-08-25T18:28:50.777Z,67.81
2022-08-25T18:32:13.206Z,68.02
2022-08-25T18:35:36.626Z,68.45
2022-08-25T18:39:17.076Z,68.93
2022-08-25T18:42:38.627Z,69.52
2022-08-25T18:46:00.756Z,69.93
2022-08-25T18:49:22.770Z,70.33
2022-08-25T18:52:50.308Z,70.90
2022-08-25T18:56:17.078Z,71.33
2022-08-25T18:59:39.460Z,71.67
2022-08-25T19:03:02.259Z,72.24
2022-08-25T19:06:24.781Z,72.50
2022-08-25T19:09:47.901Z,72.98
2022-08-25T19:13:13.048Z,73.54
2022-08-25T19:16:38.326Z,74.01
2022-08-25T19:20:00.105Z,74.30
2022-08-25T19:23:23.231Z,74.79
2022-08-25T19:26:46.646Z,74.98
2022-08-25T19:30:11.593Z,75.21
2022-08-25T19:33:43.941Z,75.61
2022-08-25T19:37:07.408Z,75.89
2022-08-25T19:40:30.906Z,76.17
2022-08-25T19:43:56.379Z,76.41
2022-08-25T19:47:20.294Z,76.55
2022-08-25T19:50:43.654Z,76.98
2022-08-25T19:54:05.913Z,77.24
2022-08-25T19:57:42.264Z,77.82
2022-08-25T20:01:07.392Z,77.74
2022-08-25T20:04:29.578Z,78.17
2022-08-25T20:07:52.951Z,78.68
2022-08-25T20:11:14.821Z,78.73
2022-08-25T20:14:36.644Z,79.35
2022-08-25T20:18:00.788Z,79.71
2022-08-25T20:21:25.117Z,79.73
2022-08-25T20:24:51.040Z,79.80
2022-08-25T20:28:18.669Z,80.37
2022-08-25T20:31:41.039Z,80.60
2022-08-25T20:35:09.780Z,80.82
2022-08-25T20:38:35.259Z,81.25
2022-08-25T20:41:57.445Z,81.24
2022-08-25T20:45:21.877Z,81.44
2022-08-25T20:48:45.723Z,81.61
2022-08-25T20:52:08.866Z,81.50
2022-08-25T20:55:31.486Z,81.74
2022-08-25T20:58:53.583Z,81.94
2022-08-25T21:02:15.378Z,81.93
2022-08-25T21:05:40.470Z,82.06
2022-08-25T21:09:06.319Z,82.48
2022-08-25T21:12:34.791Z,82.45
2022-08-25T21:15:56.890Z,82.52
2022-08-25T21:19:26.364Z,82.86
2022-08-25T21:22:55.791Z,82.98
2022-08-25T21:26:21.954Z,83.22
2022-08-25T21:29:44.608Z,83.06
2022-08-25T21:33:13.176Z,83.17
2022-08-25T21:36:35.748Z,83.67
2022-08-25T21:39:58.106Z,83.83
2022-08-25T21:43:21.487Z,84.11
2022-08-25T21:46:53.903Z,84.49
2022-08-25T21:50:16.293Z,84.67
2022-08-25T21:53:38.937Z,84.88
2022-08-25T21:57:02.785Z,84.71
2022-08-25T22:00:26.122Z,85.11
2022-08-25T22:03:48.633Z,85.11
2022-08-25T22:07:10.900Z,85.28
2022-08-25T22:10:32.422Z,85.44
2022-08-25T22:13:55.035Z,85.43
2022-08-25T22:17:21.161Z,85.47
2022-08-25T22:20:46.482Z,85.42
2022-08-25T22:24:08.812Z,85.41
2022-08-25T22:27:31.715Z,85.50
2022-08-25T22:30:53.858Z,85.99
2022-08-25T22:34:17.489Z,85.94
2022-08-25T22:37:39.533Z,86.04
2022-08-25T22:41:03.474Z,86.12
2022-08-25T22:44:26.190Z,85.96
2022-08-25T22:47:48.561Z,85.91
2022-08-25T22:51:14.053Z,86.07
2022-08-25T22:54:37.565Z,86.06
2022-08-25T22:57:59.721Z,86.42
2022-08-25T23:01:22.258Z,86.38
2022-08-25T23:04:43.854Z,86.80
2022-08-25T23:08:07.753Z,87.08
2022-08-25T23:11:29.878Z,87.12
2022-08-25T23:14:53.326Z,87.11
2022-08-25T23:18:15.755Z,86.99
2022-08-25T23:21:56.859Z,87.03
2022-08-25T23:25:21.083Z,87.05
2022-08-25T23:28:43.145Z,87.22
2022-08-25T23:32:07.346Z,87.13
2022-08-25T23:35:30.073Z,87.10
2022-08-25T23:38:52.027Z,87.06
2022-08-25T23:42:15.182Z,86.98
2022-08-25T23:45:37.202Z,87.46
2022-08-25T23:48:59.429Z,87.40
2022-08-25T23:52:21.627Z,87.20
2022-08-25T23:55:48.874Z,87.30
2022-08-25T23:59:16.488Z,87.03
